Powder River, Wyoming
Current Conditions -  °F | °C
As of 2:53 AM on Friday 19 Dec 2014 (Local Time) from KCPR Reporting Station
Clear Clear  
Wind Chill: 11°   Ceiling: Unl
Heat Index: 23°   Visibility: 10mi
Dew Point: 15°   Wind: 14mph
Humidity: 72%   Direction: 220°SW
Pressure: 30.04"   Gusts: NA
Location:  43.03°N, 106.99°W
Report Text: KCPR 190953Z AUTO 22012KT 10SM CLR M05/M09 A3004 RMK AO2 SLP208 T10501094
Loading
Personal Weather Stations






























Interactive Weather Map New forecast layout! Learn more

10-Day Weather Forecast

Advertisements
Track Severe Weather on mobile